CheckWX is a tool to help pilots better visualize weather data.  It is not intended as a substitute for an official pre-flight weather briefing.

05:09:37 UTC

KHII METAR
Lake Havasu City Airport
Lake Havasu City, Arizona, USA
Current

40 mins ago

KHII 240430Z AUTO 33006KT 10SM CLR 39/12 A2986 RMK AO2
Observed
Jul-24 @ 04:30 UTC
Wind
  • 330° at 6 KTS
Visibility
10 SM
Flight Rules
VFR
Cloud Levels
  • Clear skies
Temperature
39°C / 102°F
Dewpoint
12°C / 54°F
Humidity
20%
Altimeter
29.86" Hg
Pressure
1011.22 hPa
Previous

60 mins ago

KHII 240410Z AUTO 31003KT 10SM CLR 39/11 A2985 RMK AO2
Observed
Jul-24 @ 04:10 UTC
Wind
  • 310° at 3 KTS
Visibility
10 SM
Flight Rules
VFR
Cloud Levels
  • Clear skies
Temperature
39°C / 102°F
Dewpoint
11°C / 52°F
Humidity
18%
Altimeter
29.85" Hg
Pressure
1010.82 hPa
Previous

1 hour ago

KHII 240350Z AUTO 28003KT 10SM CLR 39/12 A2985 RMK AO2
Observed
Jul-24 @ 03:50 UTC
Wind
  • 280° at 3 KTS
Visibility
10 SM
Flight Rules
VFR
Cloud Levels
  • Clear skies
Temperature
39°C / 102°F
Dewpoint
12°C / 54°F
Humidity
20%
Altimeter
29.85" Hg
Pressure
1010.82 hPa